Main page
METAR-TAF:

METAR-TAF

Airports :

Andravida, Greece

latitude: 37-55N, longitude: 021-17E, elevation: 10 m

Current weather observation

The report was made 25 minutes ago, at 02:20 UTC
Wind 6 kt from the Northwest
Temperature 23°C
Humidity 83%
Pressure 1007 hPa
Visibility 10 km or more
Few clouds at a height of 2000 ft

METAR: LGAD 180220Z 32006KT 9999 FEW020 23/20 Q1007

Time: 05:45 (02:45 UTC)

Forecast

The report was made 45 minutes ago, at 02:00 UTC
Forecast valid from 18 at 03 UTC to 18 at 12 UTC
Wind 8 kt from the North/Northwest
Visibility 10 km or more
Few clouds at a height of 1000 ft
Scattered clouds at a height of 2000 ft
Probability 30% :
Temporary
from 18 at 03 UTC to 18 at 05 UTC
Visibility: 5000 m
Scattered clouds at a height of 1000 ft
mist
Becoming
from 18 at 07 UTC to 18 at 09 UTC
Wind 18 kt from the North/Northwest
Few clouds at a height of 2500 ft

TAF: LGAD 180200Z 1803/1812 33008KT 9999 FEW010 SCT020 PROB30 TEMPO 1803/1805 5000 BR SCT010 BECMG 1807/1809 33018KT FEW025

Weather observations and forecasts of more than 4000 airports (METAR and TAF reports).

The available stations are represented by yellow and red dots on the map.

Hover mouse over dot to see the name of the station.

Then click to see weather observations and forecasts.

To change the map : click on the green buttons with a black cross to zoom in, on the green button with a dash to zoom out, or on the green arrows for adjacent maps.


METAR-TAF: